Flight Track Log - Related Links

Times and Time Zones

All times are in EDT time to prevent confusion due to time zone crossing. See the N131PT flight status page for this flight to view local times or setup timezone preferences in your user account.

Time Position Orientation Groundspeed Altitude Reporting Facility
EDT Latitude Longitude Course Direction KTS MPH feet Rate Location/Type
Thu 02:29:30 PM 32.8181 -80.0822 207° Southwest 148 170 2,100  Level Jacksonville Center
Thu 02:30:30 PM 32.7831 -80.1031 207° Southwest 157 181 3,400 1,200 Climbing Jacksonville Center
Thu 02:31:30 PM 32.7417 -80.1289 208° Southwest 163 188 4,500 1,200 Climbing Jacksonville Center
Thu 02:32:30 PM 32.7047 -80.1497 205° Southwest 163 188 5,800 1,200 Climbing Jacksonville Center
Thu 02:33:30 PM 32.6678 -80.1831 217° Southwest 163 188 6,900 1,150 Climbing Jacksonville Center
Thu 02:34:30 PM 32.6308 -80.2136 215° Southwest 168 193 8,100 1,150 Climbing Jacksonville Center
Thu 02:35:30 PM 32.5919 -80.2519 220° Southwest 173 199 9,200 1,150 Climbing Jacksonville Center
Thu 02:36:30 PM 32.5550 -80.2850 217° Southwest 178 205 10,400 1,150 Climbing Jacksonville Center
Thu 02:37:30 PM 32.5161 -80.3206 218° Southwest 178 205 11,500 1,100 Climbing Jacksonville Center
Thu 02:38:30 PM 32.4772 -80.3586 220° Southwest 178 205 12,600 1,100 Climbing Jacksonville Center
Thu 02:39:30 PM 32.4425 -80.3989 224° Southwest 178 205 13,700 1,050 Climbing Jacksonville Center
Thu 02:40:30 PM 32.4036 -80.4369 220° Southwest 178 205 14,700 1,000 Climbing Jacksonville Center
Thu 02:41:30 PM 32.3628 -80.4750 218° Southwest 183 211 15,700 1,050 Climbing Jacksonville Center
Thu 02:42:30 PM 32.3239 -80.5153 221° Southwest 188 216 16,800 950 Climbing Jacksonville Center
Thu 02:43:30 PM 32.2828 -80.5581 221° Southwest 188 216 17,600 850 Climbing Jacksonville Center
Thu 02:44:30 PM 32.2417 -80.5986 220° Southwest 188 216 18,500 900 Climbing Jacksonville Center
Thu 02:45:30 PM 32.1989 -80.6436 222° Southwest 199 229 19,400 1,050 Climbing Jacksonville Center
Thu 02:46:30 PM 32.1536 -80.6867 219° Southwest 205 236 20,600 1,150 Climbing Jacksonville Center
Thu 02:47:30 PM 32.1061 -80.7194 210° Southwest 200 230 21,700 1,000 Climbing Jacksonville Center
Thu 02:48:30 PM 32.0544 -80.7453 203° Southwest 205 236 22,600 1,050 Climbing Jacksonville Center
Thu 02:49:30 PM 31.9986 -80.7736 203° Southwest 210 242 23,800 1,150 Climbing Jacksonville Center
Thu 02:50:30 PM 31.9447 -80.7969 200° South 210 242 24,900 1,000 Climbing Jacksonville Center
Thu 02:51:30 PM 31.8908 -80.8200 200° South 210 242 25,800 550 Climbing Jacksonville Center
Thu 02:52:30 PM 31.8411 -80.8481 206° Southwest 216 249 26,000 100 Climbing Jacksonville Center
Thu 02:53:30 PM 31.7767 -80.8764 200° South 234 269 26,000  Level Jacksonville Center
Thu 02:54:30 PM 31.7064 -80.9097 202° Southwest 247 284 26,000  Level Jacksonville Center
Thu 02:55:30 PM 31.6400 -80.9356 198° South 254 292 26,000  Level Jacksonville Center
Thu 02:56:30 PM 31.5736 -80.9686 203° Southwest 254 292 26,000  Level Jacksonville Center
Thu 02:57:30 PM 31.5156 -80.9967 202° Southwest 254 292 26,000  Level Jacksonville Center
Thu 02:58:30 PM 31.4492 -81.0297 203° Southwest 249 287 26,000  Level Jacksonville Center
Thu 02:59:30 PM 31.3767 -81.0628 201° Southwest 254 292 26,000  Level Jacksonville Center
Thu 03:00:30 PM 31.3083 -81.0956 202° Southwest 254 292 26,000  Level Jacksonville Center
Thu 03:01:30 PM 31.2439 -81.1308 205° Southwest 254 292 26,000  Level Jacksonville Center
Thu 03:02:30 PM 31.1753 -81.1442 189° South 254 292 26,000  Level Jacksonville Center
Thu 03:03:30 PM 31.1022 -81.1456 181° South 254 292 26,000  Level Jacksonville Center
Thu 03:04:30 PM 31.0333 -81.1469 181° South 254 292 26,000  Level Jacksonville Center
Thu 03:05:30 PM 30.9622 -81.1361 173° South 254 292 26,000  Level Jacksonville Center
Thu 03:06:30 PM 30.9014 -81.1253 171° South 254 292 26,000  Level Jacksonville Center
Thu 03:07:30 PM 30.8303 -81.1119 171° South 254 292 26,000  Level Jacksonville Center
Thu 03:08:30 PM 30.7611 -81.0939 167° South 259 298 26,000  Level Jacksonville Center
Thu 03:09:30 PM 30.6878 -81.0783 170° South 259 298 26,000  Level Jacksonville Center
Thu 03:10:30 PM 30.6147 -81.0653 171° South 259 298 26,000  Level Jacksonville Center
Thu 03:11:30 PM 30.5456 -81.0522 171° South 259 298 26,000  Level Jacksonville Center
Thu 03:12:30 PM 30.4764 -81.0367 169° South 259 298 26,000  Level Jacksonville Center
Thu 03:13:30 PM 30.4053 -81.0236 171° South 259 298 26,000  Level Jacksonville Center
Thu 03:14:30 PM 30.3319 -81.0081 170° South 259 298 26,000  Level Jacksonville Center
Thu 03:15:30 PM 30.2608 -80.9928 169° South 259 298 26,000  Level Jacksonville Center
Thu 03:16:30 PM 30.1894 -80.9772 169° South 259 298 26,000  Level Jacksonville Center
Thu 03:17:30 PM 30.1183 -80.9642 171° South 259 298 26,000  Level Jacksonville Center
Thu 03:18:30 PM 30.0492 -80.9514 171° South 259 298 26,000  Level Jacksonville Center
Thu 03:19:30 PM 29.9758 -80.9361 170° South 259 298 26,000  Level Jacksonville Center
Thu 03:20:30 PM 29.9047 -80.9231 171° South 259 298 26,000  Level Jacksonville Center
Thu 03:21:30 PM 29.8356 -80.9078 169° South 259 298 26,000  Level Jacksonville Center
Thu 03:22:30 PM 29.7644 -80.8925 169° South 259 298 26,000  Level Jacksonville Center
Thu 03:23:30 PM 29.6933 -80.8794 171° South 259 298 26,000  Level Jacksonville Center
Thu 03:24:30 PM 29.6242 -80.8667 171° South 259 298 26,000  Level Jacksonville Center
Thu 03:26:55 PM 29.4556 -80.8283 169° South 259 298 26,000  Level Miami Center
Thu 03:27:55 PM 29.3831 -80.8186 173° South 259 298 26,000  Level Miami Center
Thu 03:28:55 PM 29.3106 -80.8017 168° South 259 298 26,000  Level Miami Center
Thu 03:29:55 PM 29.2400 -80.7875 170° South 259 298 26,000  Level Miami Center
Thu 03:30:55 PM 29.1672 -80.7728 170° South 259 298 26,000  Level Miami Center
Thu 03:31:55 PM 29.0967 -80.7608 172° South 259 298 26,000  Level Miami Center
Thu 03:32:55 PM 29.0283 -80.7442 168° South 259 298 26,000  Level Miami Center
Thu 03:33:55 PM 28.9556 -80.7322 172° South 259 298 26,000  Level Miami Center
Thu 03:34:55 PM 28.8789 -80.7153 169° South 259 298 26,000  Level Miami Center
Thu 03:35:55 PM 28.8083 -80.7011 170° South 259 298 26,000  Level Miami Center
Thu 03:36:55 PM 28.7378 -80.6867 170° South 259 298 26,000 -350 Level Miami Center
Thu 03:37:55 PM 28.6761 -80.6586 158° South 259 298 25,300 -550 Descending Miami Center
Thu 03:38:55 PM 28.6106 -80.6139 149° Southeast 269 310 24,900 -600 Descending Miami Center
Thu 03:39:55 PM 28.5450 -80.5642 146° Southeast 269 310 24,100 -850 Descending Miami Center
Thu 03:40:55 PM 28.4833 -80.5222 149° Southeast 269 310 23,200 -950 Descending Miami Center
Thu 03:41:55 PM 28.4239 -80.4800 148° Southeast 263 303 22,200 -1,100 Descending Miami Center
Thu 03:42:55 PM 28.3708 -80.4428 148° Southeast 256 295 21,000 -1,100 Descending Miami Center
Thu 03:43:55 PM 28.3108 -80.4128 156° South 241 277 20,000 -1,200 Descending Miami Center
Thu 03:44:55 PM 28.2406 -80.3917 165° South 230 265 18,600 -1,250 Descending Miami Center
Thu 03:45:55 PM 28.1742 -80.3756 168° South 230 265 17,500 -1,100 Descending Miami Center
Thu 03:46:55 PM 28.1119 -80.3569 165° South 236 272 16,400 -1,000 Descending Miami Center
Thu 03:47:55 PM 28.0519 -80.3386 165° South 236 272 15,500 -950 Descending Miami Center
Thu 03:48:55 PM 27.9917 -80.3228 167° South 236 272 14,500 -900 Descending Miami Center
Thu 03:49:55 PM 27.9336 -80.3069 166° South 230 265 13,700 -900 Descending Miami Center
Thu 03:50:55 PM 27.8778 -80.2911 166° South 219 252 12,700 -1,050 Descending Miami Center
Thu 03:51:55 PM 27.8239 -80.2753 165° South 211 243 11,600 -1,000 Descending Miami Center
Thu 03:52:55 PM 27.7719 -80.2622 167° South 211 243 10,700 -909 Descending Miami Center
Thu 03:54:07 PM 27.6994 -80.2411 166° South 211 243 9,600 -864 Descending Miami Center
Thu 03:55:07 PM 27.6453 -80.2278 168° South 206 237 8,800 -850 Descending Miami Center
Thu 03:56:07 PM 27.5956 -80.2122 165° South 206 237 7,900 -800 Descending Miami Center
Thu 03:57:07 PM 27.5394 -80.1989 168° South 201 231 7,200 -750 Descending Miami Center
Thu 03:58:07 PM 27.4814 -80.1833 167° South 201 231 6,400 -600 Descending Miami Center
Thu 03:59:07 PM 27.4275 -80.1678 166° South 201 231 6,000 -250 Descending Miami Center
Thu 04:00:07 PM 27.3756 -80.1522 165° South 201 231 5,900 -50 Descending Miami Center
Thu 04:01:07 PM 27.3278 -80.1414 169° South 201 231 5,900  Level Miami Center
Thu 04:02:07 PM 27.2739 -80.1353 174° South 201 231 5,900  Level Miami Center
Thu 04:03:07 PM 27.2133 -80.1311 176° South 196 226 5,900  Level Miami Center
Thu 04:04:07 PM 27.1611 -80.1250 174° South 196 226 5,900  Level Miami Center
Thu 04:05:07 PM 27.1092 -80.1211 176° South 196 226 5,900 -450 Level Miami Center
Thu 04:06:07 PM 27.0592 -80.1175 176° South 196 226 5,000 -337 Descending Miami Center
Thu 04:08:00 PM 26.9400 -80.1167 180° South  Level FlightAware Approximate
Thu 04:15:00 PM 26.4979 -80.1000 180° South  Level FlightAware Approximate
Thu 04:16:00 PM 26.4346 -80.1000 180° South  Level FlightAware Approximate
Thu 04:16:42 PM 26.4925 -80.1458 180° South 180 207 2,000  Level Miami Center
Thu 04:17:00 PM 26.3713 -80.1000 180° South  Level FlightAware Approximate
Thu 04:17:56 PM 26.4417 -80.1747 207° Southwest 168 193 2,100  Level Miami Center
Thu 04:18:00 PM 26.3667 -80.1000 180° South  Level FlightAware Approximate
Thu 04:18:57 PM 26.3958 -80.1733 178° South 158 182 1,600  Level Miami Center
Thu 04:19:00 PM 26.3785 -80.1077 180° South  Level Estimated
Thu 04:19:58 PM 26.3628 -80.1561 155° Southeast 120 138 1,200  Level Miami Center
Thu 04:20:00 PM 26.3785 -80.1077 180° South  Level Estimated
Thu 04:20:59 PM 26.3614 -80.1236 93° East 116 133 400  Level Miami Center
Thu 04:21:00 PM 26.3785 -80.1077 180° South  Level Estimated
Thu 04:22:00 PM 26.3785 -80.1077 180° South  Level Estimated
Thu 04:22:00 PM 26.3667 -80.1000 42° Northeast  Level FlightAware Approximate
Thu 04:29:00 PM 26.3785 -80.1077 42° Northeast  Level Estimated
Thu 04:30:00 PM 26.3785 -80.1077 42° Northeast  Level Estimated

Login

Don't have an account? Register now (free) for customized features, flight alerts, and more!